createdAt,value
2022-12-04T00:01:22.285Z,89.74
2022-12-04T00:03:56.373Z,89.60
2022-12-04T00:06:24.493Z,89.55
2022-12-04T00:08:52.789Z,89.67
2022-12-04T00:11:23.704Z,89.62
2022-12-04T00:13:51.217Z,89.55
2022-12-04T00:16:21.931Z,89.58
2022-12-04T00:18:49.930Z,89.67
2022-12-04T00:21:19.401Z,89.85
2022-12-04T00:23:47.997Z,89.84
2022-12-04T00:26:18.810Z,89.75
2022-12-04T00:28:47.255Z,90.15
2022-12-04T00:31:17.941Z,90.17
2022-12-04T00:33:45.537Z,90.07
2022-12-04T00:36:15.745Z,90.14
2022-12-04T00:38:44.847Z,90.03
2022-12-04T00:41:16.025Z,89.98
2022-12-04T00:43:43.414Z,90.07
2022-12-04T00:46:10.850Z,89.91
2022-12-04T00:48:39.050Z,89.89
2022-12-04T00:51:11.516Z,89.83
2022-12-04T00:53:39.758Z,89.83
2022-12-04T00:56:13.733Z,89.80
2022-12-04T00:58:42.279Z,89.67
2022-12-04T01:01:12.652Z,89.74
2022-12-04T01:03:40.972Z,90.01
2022-12-04T01:06:21.660Z,90.29
2022-12-04T01:08:51.220Z,90.05
2022-12-04T01:11:19.936Z,90.13
2022-12-04T01:13:47.835Z,90.54
2022-12-04T01:16:31.248Z,90.59
2022-12-04T01:18:58.760Z,90.96
2022-12-04T01:21:26.140Z,90.96
2022-12-04T01:23:53.571Z,90.90
2022-12-04T01:26:20.951Z,91.22
2022-12-04T01:28:48.275Z,91.33
2022-12-04T01:31:18.619Z,91.22
2022-12-04T01:33:46.916Z,90.91
2022-12-04T01:36:17.473Z,91.11
2022-12-04T01:38:45.310Z,91.38
2022-12-04T01:41:14.919Z,91.18
2022-12-04T01:43:42.297Z,91.16
2022-12-04T01:46:11.079Z,91.34
2022-12-04T01:48:44.245Z,91.54
2022-12-04T01:51:11.567Z,91.17
2022-12-04T01:53:43.922Z,91.39
2022-12-04T01:56:11.603Z,91.24
2022-12-04T01:58:45.054Z,91.15
2022-12-04T02:01:12.426Z,91.10
2022-12-04T02:03:40.898Z,91.46
2022-12-04T02:06:08.370Z,91.38
2022-12-04T02:08:37.513Z,91.53
2022-12-04T02:11:29.500Z,91.45
2022-12-04T02:14:20.122Z,91.52
2022-12-04T02:16:52.031Z,91.29
2022-12-04T02:19:47.348Z,90.99
2022-12-04T02:22:44.705Z,91.03
2022-12-04T02:25:18.778Z,91.06
2022-12-04T02:27:58.060Z,90.88
2022-12-04T02:30:28.388Z,90.90
2022-12-04T02:33:07.577Z,90.81
2022-12-04T02:35:41.706Z,90.97
2022-12-04T02:38:17.677Z,90.76
2022-12-04T02:41:05.784Z,90.99
2022-12-04T02:43:40.229Z,90.54
2022-12-04T02:46:15.829Z,90.31
2022-12-04T02:48:45.665Z,90.27
2022-12-04T02:51:15.823Z,90.39
2022-12-04T02:53:49.520Z,90.29
2022-12-04T02:56:23.209Z,90.19
2022-12-04T02:59:01.420Z,90.28
2022-12-04T03:01:34.927Z,90.60
2022-12-04T03:04:16.225Z,90.51
2022-12-04T03:06:47.455Z,90.50
2022-12-04T03:09:28.548Z,90.93
2022-12-04T03:12:01.054Z,90.98
2022-12-04T03:14:35.092Z,91.25
2022-12-04T03:17:09.007Z,91.24
2022-12-04T03:19:51.835Z,91.20
2022-12-04T03:22:21.911Z,91.12
2022-12-04T03:24:53.944Z,91.20
2022-12-04T03:27:51.396Z,91.31
2022-12-04T03:30:22.014Z,91.32
2022-12-04T03:32:58.315Z,91.35
2022-12-04T03:35:33.101Z,91.17
2022-12-04T03:38:40.594Z,91.18
2022-12-04T03:41:29.369Z,91.37
2022-12-04T03:44:51.949Z,91.19
2022-12-04T03:47:27.538Z,91.18
2022-12-04T03:50:01.613Z,91.15
2022-12-04T03:52:38.958Z,91.19
2022-12-04T03:55:27.527Z,91.43
2022-12-04T03:58:02.262Z,91.50
2022-12-04T04:00:31.175Z,91.12
2022-12-04T04:03:03.929Z,90.93
2022-12-04T04:05:33.392Z,91.08
2022-12-04T04:08:23.204Z,91.61
2022-12-04T04:10:54.024Z,91.50
2022-12-04T04:13:51.893Z,91.55
2022-12-04T04:16:41.192Z,91.50
2022-12-04T04:19:32.300Z,91.46
2022-12-04T04:22:21.545Z,91.35
2022-12-04T04:25:12.121Z,91.35
2022-12-04T04:27:39.459Z,91.69
2022-12-04T04:30:09.199Z,91.62
2022-12-04T04:32:42.985Z,91.73
2022-12-04T04:35:25.603Z,91.70
2022-12-04T04:38:13.965Z,91.67
2022-12-04T04:40:50.911Z,91.87
2022-12-04T04:43:44.203Z,91.98
2022-12-04T04:46:17.370Z,91.99
2022-12-04T04:48:52.715Z,91.86
2022-12-04T04:51:21.415Z,91.61
2022-12-04T04:53:56.003Z,91.41
2022-12-04T04:56:24.504Z,91.22
2022-12-04T04:58:51.888Z,91.14
2022-12-04T05:01:22.734Z,91.11
2022-12-04T05:03:50.182Z,90.91
2022-12-04T05:06:17.801Z,90.86
2022-12-04T05:08:45.295Z,90.88
2022-12-04T05:11:14.316Z,90.84
2022-12-04T05:13:42.379Z,90.69
2022-12-04T05:16:14.578Z,90.58
2022-12-04T05:19:01.079Z,90.39
2022-12-04T05:21:28.480Z,90.28
2022-12-04T05:23:55.867Z,90.17
2022-12-04T05:26:23.269Z,90.06
2022-12-04T05:28:50.764Z,90.06
2022-12-04T05:31:18.221Z,90.08
2022-12-04T05:33:45.623Z,90.04
2022-12-04T05:36:13.474Z,90.04
2022-12-04T05:38:41.156Z,90.04
2022-12-04T05:41:08.646Z,90.04
2022-12-04T05:43:36.048Z,90.10
2022-12-04T05:46:08.632Z,90.04
2022-12-04T05:48:36.593Z,89.98
2022-12-04T05:51:10.758Z,90.01
2022-12-04T05:53:38.982Z,90.01
2022-12-04T05:56:07.586Z,89.99
2022-12-04T05:58:38.856Z,89.86
2022-12-04T06:01:20.312Z,89.79
2022-12-04T06:03:47.751Z,89.69
2022-12-04T06:06:22.658Z,89.61
2022-12-04T06:08:51.917Z,89.56
2022-12-04T06:11:29.168Z,89.45
2022-12-04T06:13:57.378Z,89.38
2022-12-04T06:16:30.491Z,89.12
2022-12-04T06:19:01.072Z,88.54
2022-12-04T06:21:31.934Z,87.42
2022-12-04T06:23:59.284Z,85.74
2022-12-04T06:26:26.588Z,83.56
2022-12-04T06:28:55.464Z,81.13
2022-12-04T06:31:24.002Z,80.10
2022-12-04T06:33:52.960Z,76.50
2022-12-04T06:36:21.248Z,74.15
2022-12-04T06:38:50.165Z,73.15
2022-12-04T06:41:19.686Z,69.96
2022-12-04T06:43:48.593Z,67.22
2022-12-04T06:46:21.509Z,65.66
2022-12-04T06:48:49.767Z,61.32
2022-12-04T06:51:20.926Z,61.06
2022-12-04T06:53:48.941Z,61.09
2022-12-04T06:56:19.408Z,56.45
2022-12-04T06:58:51.829Z,54.79
2022-12-04T07:01:21.849Z,51.99
2022-12-04T07:03:51.809Z,52.21
2022-12-04T07:06:21.077Z,53.96
2022-12-04T07:08:53.131Z,55.69
2022-12-04T07:11:22.347Z,58.66
2022-12-04T07:13:50.401Z,62.57
2022-12-04T07:16:20.461Z,64.93
2022-12-04T07:18:53.985Z,66.15
2022-12-04T07:21:24.843Z,66.96
2022-12-04T07:23:55.208Z,68.41
2022-12-04T07:26:24.003Z,69.21
2022-12-04T07:28:51.760Z,70.20
2022-12-04T07:31:21.648Z,71.46
2022-12-04T07:33:49.716Z,72.75
2022-12-04T07:36:22.064Z,73.30
2022-12-04T07:38:50.181Z,73.57
2022-12-04T07:41:18.521Z,74.20
2022-12-04T07:43:46.576Z,74.16
2022-12-04T07:46:17.205Z,74.58
2022-12-04T07:48:44.601Z,74.05
2022-12-04T07:51:21.978Z,74.15
2022-12-04T07:53:51.168Z,73.67
2022-12-04T07:56:19.184Z,73.90
2022-12-04T07:58:47.087Z,74.04
2022-12-04T08:01:17.674Z,74.28
2022-12-04T08:03:48.719Z,73.59
2022-12-04T08:06:18.659Z,72.66
2022-12-04T08:08:47.097Z,72.50
2022-12-04T08:11:17.683Z,72.59
2022-12-04T08:13:45.558Z,72.22
2022-12-04T08:16:13.511Z,72.14
2022-12-04T08:18:41.624Z,71.92
2022-12-04T08:21:14.719Z,72.73
2022-12-04T08:23:44.271Z,72.30
2022-12-04T08:26:12.539Z,72.16
2022-12-04T08:28:40.870Z,72.29
2022-12-04T08:31:12.871Z,72.98
2022-12-04T08:33:41.586Z,71.33
2022-12-04T08:36:11.828Z,72.16
2022-12-04T08:38:39.511Z,71.83
2022-12-04T08:41:10.715Z,70.76
2022-12-04T08:43:38.815Z,71.08
2022-12-04T08:46:11.573Z,70.19
2022-12-04T08:48:39.307Z,70.62
2022-12-04T08:51:08.232Z,69.83
2022-12-04T08:53:39.045Z,69.83
2022-12-04T08:56:06.832Z,69.47
2022-12-04T08:58:34.416Z,70.73
2022-12-04T09:01:07.999Z,71.32
2022-12-04T09:03:36.085Z,71.01
2022-12-04T09:06:04.639Z,72.14
2022-12-04T09:08:32.634Z,70.64
2022-12-04T09:11:11.904Z,70.51
2022-12-04T09:13:40.249Z,70.13
2022-12-04T09:16:09.906Z,70.30
2022-12-04T09:18:38.595Z,70.40
2022-12-04T09:21:09.048Z,69.72
2022-12-04T09:23:37.917Z,69.48
2022-12-04T09:26:15.593Z,70.13
2022-12-04T09:28:42.894Z,70.81
2022-12-04T09:31:12.251Z,71.99
2022-12-04T09:33:39.623Z,71.80
2022-12-04T09:36:07.178Z,72.84
2022-12-04T09:38:34.542Z,72.67
2022-12-04T09:41:20.807Z,72.00
2022-12-04T09:43:52.713Z,72.08
2022-12-04T09:46:39.949Z,72.88
2022-12-04T09:49:12.916Z,72.79
2022-12-04T09:51:42.311Z,72.68
2022-12-04T09:54:21.167Z,72.86
2022-12-04T09:57:07.853Z,72.61
2022-12-04T09:59:35.176Z,72.23
2022-12-04T10:02:27.494Z,72.30
2022-12-04T10:04:56.073Z,71.14
2022-12-04T10:07:28.024Z,71.01
2022-12-04T10:10:05.667Z,70.32
2022-12-04T10:13:06.558Z,70.64
2022-12-04T10:16:17.869Z,71.23
2022-12-04T10:18:53.620Z,70.75
2022-12-04T10:21:42.657Z,70.88
2022-12-04T10:24:21.053Z,70.83
2022-12-04T10:26:48.969Z,70.82
2022-12-04T10:29:30.572Z,70.01
2022-12-04T10:32:07.064Z,69.30
2022-12-04T10:34:34.690Z,69.02
2022-12-04T10:37:11.586Z,68.61
2022-12-04T10:40:06.512Z,67.92
2022-12-04T10:42:47.609Z,67.20
2022-12-04T10:45:15.142Z,67.00
2022-12-04T10:47:45.732Z,66.70
2022-12-04T10:50:16.110Z,66.96
2022-12-04T10:52:43.652Z,68.70
2022-12-04T10:55:11.748Z,67.80
2022-12-04T10:57:46.869Z,68.04
2022-12-04T11:00:27.133Z,67.90
2022-12-04T11:02:57.575Z,67.71
2022-12-04T11:05:51.804Z,68.27
2022-12-04T11:08:30.550Z,68.41
2022-12-04T11:11:06.764Z,68.51
2022-12-04T11:13:34.312Z,68.84
2022-12-04T11:16:02.833Z,69.19
2022-12-04T11:18:46.613Z,68.91
2022-12-04T11:21:26.243Z,68.89
2022-12-04T11:23:53.971Z,68.86
2022-12-04T11:26:32.628Z,69.08
2022-12-04T11:29:01.639Z,68.38
2022-12-04T11:31:30.729Z,69.24
2022-12-04T11:34:02.852Z,69.45
2022-12-04T11:36:34.922Z,69.63
2022-12-04T11:39:23.084Z,69.29
2022-12-04T11:42:04.842Z,68.68
2022-12-04T11:44:35.026Z,68.85
2022-12-04T11:47:04.828Z,68.25
2022-12-04T11:49:33.265Z,67.55
2022-12-04T11:52:06.387Z,67.97
2022-12-04T11:55:09.235Z,67.46
2022-12-04T11:57:39.798Z,67.34
2022-12-04T12:00:21.647Z,67.04
2022-12-04T12:03:15.338Z,67.23
2022-12-04T12:05:54.779Z,66.88
2022-12-04T12:08:48.675Z,67.30
2022-12-04T12:11:30.248Z,67.14
2022-12-04T12:14:30.235Z,66.36
2022-12-04T12:17:10.345Z,67.05
2022-12-04T12:19:47.979Z,68.08
2022-12-04T12:22:33.220Z,68.58
2022-12-04T12:25:06.494Z,68.74
2022-12-04T12:27:39.727Z,69.33
2022-12-04T12:30:15.605Z,69.58
2022-12-04T12:32:52.400Z,69.33
2022-12-04T12:35:39.039Z,69.18
2022-12-04T12:38:11.759Z,69.15
2022-12-04T12:40:53.178Z,69.39
2022-12-04T12:43:27.166Z,69.71
2022-12-04T12:46:03.198Z,70.09
2022-12-04T12:48:56.596Z,69.77
2022-12-04T12:51:41.676Z,70.92
2022-12-04T12:54:22.602Z,71.33
2022-12-04T12:56:55.762Z,71.17
2022-12-04T12:59:27.453Z,71.66
2022-12-04T13:02:02.436Z,71.87
2022-12-04T13:04:41.439Z,72.38
2022-12-04T13:07:24.055Z,72.05
2022-12-04T13:10:13.472Z,72.18
2022-12-04T13:13:04.212Z,72.47
2022-12-04T13:15:53.818Z,71.86
2022-12-04T13:18:29.089Z,71.89
2022-12-04T13:21:00.743Z,71.86
2022-12-04T13:23:44.915Z,71.34
2022-12-04T13:27:10.931Z,71.62
2022-12-04T13:30:09.116Z,72.01
2022-12-04T13:33:01.715Z,72.13
2022-12-04T13:35:50.326Z,72.61
2022-12-04T13:38:58.131Z,72.93
2022-12-04T13:41:27.756Z,73.39
2022-12-04T13:43:57.542Z,73.25
2022-12-04T13:46:40.313Z,73.51
2022-12-04T13:49:25.941Z,73.60
2022-12-04T13:51:54.230Z,73.51
2022-12-04T13:54:26.813Z,73.80
2022-12-04T13:56:57.287Z,73.69
2022-12-04T13:59:36.194Z,73.70
2022-12-04T14:02:28.171Z,74.31
2022-12-04T14:05:10.630Z,74.35
2022-12-04T14:07:44.478Z,74.51
2022-12-04T14:10:15.473Z,74.58
2022-12-04T14:12:49.949Z,74.64
2022-12-04T14:15:23.820Z,74.31
2022-12-04T14:18:17.571Z,74.28
2022-12-04T14:20:45.065Z,74.34
2022-12-04T14:23:22.645Z,74.50
2022-12-04T14:25:51.262Z,74.75
2022-12-04T14:28:41.657Z,75.37
2022-12-04T14:31:25.673Z,75.65
2022-12-04T14:34:03.940Z,75.76
2022-12-04T14:36:41.244Z,75.91
2022-12-04T14:39:14.955Z,75.97
2022-12-04T14:41:42.597Z,75.64
2022-12-04T14:44:28.952Z,75.54
2022-12-04T14:47:25.510Z,75.54
2022-12-04T14:50:11.039Z,75.75
2022-12-04T14:52:43.881Z,75.97
2022-12-04T14:55:45.128Z,75.88
2022-12-04T14:58:31.241Z,75.90
2022-12-04T15:01:29.360Z,75.71
2022-12-04T15:04:10.252Z,75.74
2022-12-04T15:06:39.615Z,75.77
2022-12-04T15:09:36.197Z,75.85
2022-12-04T15:12:35.760Z,75.50
2022-12-04T15:15:09.520Z,75.56
2022-12-04T15:17:36.941Z,75.64
2022-12-04T15:20:17.163Z,75.57
2022-12-04T15:22:45.530Z,75.61
2022-12-04T15:25:18.949Z,75.62
2022-12-04T15:27:48.718Z,75.41
2022-12-04T15:30:19.219Z,75.54
2022-12-04T15:32:50.511Z,75.48
2022-12-04T15:35:29.271Z,75.58
2022-12-04T15:37:57.361Z,75.49
2022-12-04T15:40:29.595Z,75.31
2022-12-04T15:43:14.309Z,75.54
2022-12-04T15:45:41.676Z,75.36
2022-12-04T15:48:09.162Z,75.59
2022-12-04T15:50:36.698Z,75.57
2022-12-04T15:53:24.887Z,75.61
2022-12-04T15:55:58.859Z,75.52
2022-12-04T15:58:27.756Z,75.85
2022-12-04T16:01:01.568Z,75.84
2022-12-04T16:03:36.265Z,75.88
2022-12-04T16:06:29.190Z,76.11
2022-12-04T16:09:21.954Z,75.93
2022-12-04T16:12:04.309Z,75.94
2022-12-04T16:14:31.883Z,76.28
2022-12-04T16:17:05.950Z,76.17
2022-12-04T16:19:41.108Z,76.53
2022-12-04T16:22:19.339Z,76.72
2022-12-04T16:24:47.989Z,77.22
2022-12-04T16:27:20.151Z,77.97
2022-12-04T16:29:47.600Z,78.29
2022-12-04T16:32:17.783Z,79.29
2022-12-04T16:34:46.011Z,80.32
2022-12-04T16:37:19.426Z,80.51
2022-12-04T16:39:47.569Z,81.27
2022-12-04T16:42:20.696Z,81.62
2022-12-04T16:44:48.153Z,81.54
2022-12-04T16:47:16.335Z,82.04
2022-12-04T16:49:44.867Z,82.50
2022-12-04T16:52:12.442Z,82.24
2022-12-04T16:54:40.269Z,81.69
2022-12-04T16:57:08.428Z,82.06
2022-12-04T16:59:36.246Z,81.85
2022-12-04T17:02:11.891Z,82.13
2022-12-04T17:04:39.244Z,81.59
2022-12-04T17:07:06.825Z,82.12
2022-12-04T17:09:34.210Z,83.01
2022-12-04T17:12:01.494Z,82.95
2022-12-04T17:14:29.877Z,83.49
2022-12-04T17:16:59.504Z,83.17
2022-12-04T17:19:27.691Z,83.82
2022-12-04T17:21:55.074Z,83.90
2022-12-04T17:24:22.409Z,84.10
2022-12-04T17:26:49.712Z,84.27
2022-12-04T17:29:18.000Z,84.20
2022-12-04T17:31:45.373Z,84.47
2022-12-04T17:34:12.782Z,84.59
2022-12-04T17:36:40.110Z,84.43
2022-12-04T17:39:08.289Z,84.41
2022-12-04T17:41:35.767Z,84.63
2022-12-04T17:44:03.337Z,85.08
2022-12-04T17:46:30.762Z,84.59
2022-12-04T17:49:01.451Z,84.23
2022-12-04T17:51:30.049Z,83.15
2022-12-04T17:53:59.195Z,83.23
2022-12-04T17:56:26.567Z,82.24
2022-12-04T17:58:53.936Z,82.05
2022-12-04T18:01:23.973Z,81.93
2022-12-04T18:03:57.283Z,81.96
2022-12-04T18:06:36.977Z,81.77
2022-12-04T18:09:06.180Z,81.96
2022-12-04T18:11:35.292Z,82.05
2022-12-04T18:14:11.982Z,81.97
2022-12-04T18:16:46.348Z,82.10
2022-12-04T18:19:14.582Z,82.34
2022-12-04T18:21:42.106Z,82.54
2022-12-04T18:24:09.632Z,82.60
2022-12-04T18:26:39.870Z,82.78
2022-12-04T18:29:08.300Z,83.41
2022-12-04T18:31:37.631Z,83.53
2022-12-04T18:34:06.162Z,83.96
2022-12-04T18:36:35.345Z,84.84
2022-12-04T18:39:08.806Z,84.45
2022-12-04T18:41:36.637Z,84.64
2022-12-04T18:44:04.397Z,84.61
2022-12-04T18:46:32.964Z,85.15
2022-12-04T18:49:01.231Z,85.25
2022-12-04T18:51:31.135Z,85.49
2022-12-04T18:54:26.302Z,85.73
2022-12-04T18:56:53.649Z,85.33
2022-12-04T18:59:26.527Z,85.87
2022-12-04T19:01:54.709Z,85.62
2022-12-04T19:04:23.973Z,85.69
2022-12-04T19:06:54.543Z,85.53
2022-12-04T19:09:47.341Z,85.44
2022-12-04T19:12:13.747Z,85.44
2022-12-04T19:14:41.666Z,85.62
2022-12-04T19:17:09.244Z,86.06
2022-12-04T19:19:36.962Z,86.33
2022-12-04T19:22:04.586Z,86.47
2022-12-04T19:24:32.137Z,86.30
2022-12-04T19:27:06.454Z,86.31
2022-12-04T19:29:35.522Z,86.32
2022-12-04T19:32:03.285Z,86.47
2022-12-04T19:34:31.777Z,86.35
2022-12-04T19:36:59.224Z,86.18
2022-12-04T19:39:26.874Z,86.40
2022-12-04T19:41:54.313Z,86.38
2022-12-04T19:47:10.195Z,86.28
2022-12-04T19:49:37.515Z,86.42
2022-12-04T19:52:06.691Z,86.36
2022-12-04T19:54:34.091Z,86.47
2022-12-04T19:57:01.649Z,86.87
2022-12-04T19:59:34.629Z,86.96
2022-12-04T20:02:03.923Z,86.87
2022-12-04T20:04:31.265Z,86.65
2022-12-04T20:06:58.984Z,86.60
2022-12-04T20:09:27.343Z,86.46
2022-12-04T20:11:54.793Z,86.16
2022-12-04T20:14:22.340Z,86.14
2022-12-04T20:16:50.488Z,85.92
2022-12-04T20:19:19.485Z,85.78
2022-12-04T20:21:47.289Z,85.71
2022-12-04T20:24:18.015Z,85.63
2022-12-04T20:26:46.138Z,85.63
2022-12-04T20:29:16.316Z,85.52
2022-12-04T20:31:46.496Z,85.27
2022-12-04T20:34:17.065Z,84.91
2022-12-04T20:36:47.462Z,84.87
2022-12-04T20:39:19.161Z,84.71
2022-12-04T20:41:46.815Z,84.68
2022-12-04T20:44:19.575Z,84.69
2022-12-04T20:46:48.485Z,84.59
2022-12-04T20:49:22.121Z,84.64
2022-12-04T20:51:51.447Z,84.68
2022-12-04T20:54:20.694Z,84.77
2022-12-04T20:56:49.038Z,84.87
2022-12-04T20:59:22.435Z,84.32
2022-12-04T21:01:53.471Z,84.04
2022-12-04T21:04:28.595Z,83.65
2022-12-04T21:06:59.484Z,83.39
2022-12-04T21:09:26.856Z,83.27
2022-12-04T21:11:56.426Z,83.30
2022-12-04T21:14:44.815Z,83.25
2022-12-04T21:17:18.302Z,83.22
2022-12-04T21:19:51.487Z,83.48
2022-12-04T21:22:19.798Z,83.17
2022-12-04T21:24:47.916Z,83.08
2022-12-04T21:27:20.764Z,82.81
2022-12-04T21:29:49.634Z,83.05
2022-12-04T21:32:18.900Z,82.58
2022-12-04T21:34:46.237Z,82.82
2022-12-04T21:37:14.418Z,82.81
2022-12-04T21:39:42.954Z,82.83
2022-12-04T21:42:29.459Z,82.72
2022-12-04T21:45:04.082Z,82.74
2022-12-04T21:47:36.399Z,82.65
2022-12-04T21:50:08.718Z,82.50
2022-12-04T21:52:38.444Z,82.63
2022-12-04T21:55:07.839Z,82.62
2022-12-04T21:57:35.161Z,82.67
2022-12-04T22:00:02.484Z,82.29
2022-12-04T22:02:32.559Z,82.48
2022-12-04T22:05:00.039Z,82.29
2022-12-04T22:07:27.640Z,82.60
2022-12-04T22:09:55.156Z,82.66
2022-12-04T22:15:10.605Z,83.13
2022-12-04T22:17:37.944Z,83.37
2022-12-04T22:20:07.623Z,83.91
2022-12-04T22:22:35.589Z,84.10
2022-12-04T22:25:03.625Z,84.32
2022-12-04T22:27:31.032Z,84.49
2022-12-04T22:29:58.926Z,85.00
2022-12-04T22:32:26.319Z,85.28
2022-12-04T22:34:53.660Z,85.37
2022-12-04T22:37:21.072Z,85.37
2022-12-04T22:39:48.592Z,85.53
2022-12-04T22:42:15.949Z,85.47
2022-12-04T22:44:43.284Z,85.49
2022-12-04T22:47:10.678Z,85.25
2022-12-04T22:49:38.036Z,85.33
2022-12-04T22:52:05.404Z,85.32
2022-12-04T22:54:32.818Z,85.56
2022-12-04T22:57:00.173Z,85.66
2022-12-04T22:59:27.552Z,86.07
2022-12-04T23:01:55.127Z,85.91
2022-12-04T23:04:22.572Z,86.39
2022-12-04T23:06:50.087Z,86.67
2022-12-04T23:09:17.918Z,86.95
2022-12-04T23:11:45.741Z,86.84
2022-12-04T23:14:15.255Z,86.55
2022-12-04T23:16:43.145Z,86.59
2022-12-04T23:19:16.419Z,86.53
2022-12-04T23:21:44.523Z,86.52
2022-12-04T23:24:12.591Z,86.14
2022-12-04T23:26:43.494Z,85.87
2022-12-04T23:29:29.818Z,85.73
2022-12-04T23:31:58.519Z,85.62
2022-12-04T23:34:30.408Z,85.17
2022-12-04T23:36:57.792Z,85.06
2022-12-04T23:39:25.475Z,84.94
2022-12-04T23:41:54.633Z,84.91
2022-12-04T23:44:22.028Z,85.13
2022-12-04T23:46:50.643Z,85.08
2022-12-04T23:49:17.936Z,85.56
2022-12-04T23:51:45.312Z,86.31
2022-12-04T23:54:12.598Z,86.47
2022-12-04T23:56:40.146Z,86.55
2022-12-04T23:59:07.978Z,86.38
